Latest Weather Observations for Kalgoorlie-Boulder

IDW60801

Issued at 10:02 pm WST Sunday 2 August 2015 (issued every 30 minutes, with the page automatically refreshed every 10 minutes)

About weather observations | Map of weather stations | Latest weather observations for WA | Other Formats
Station Details ID: 012038 Name: KALGOORLIE-BOULDER AIRPORT Lat: -30.78 Lon: 121.45 Height: 365.3 m
Data from the previous 72 hours. | See also: Recent months at Kalgoorlie-Boulder
Date/Time
WST
Temp
°C
App
Temp
°C
Dew
Point
Rel
Hum
%
Delta-T
°C
Wind Press
QNH
hPa
Press
MSL
hPa
Rain
since 9 am
mm
Dir
 
Spd
km/h
Gust
km/h
Spd
kts
Gust
kts
02/10:00pm 7.0 3.9 3.5 78 1.5 S 9 13 5 7 1034.0 - 0.0
02/09:30pm 7.9 4.7 3.3 73 2.0 SSE 9 15 5 8 1034.1 - 0.0
02/09:00pm 8.7 5.2 3.4 69 2.3 SSE 11 17 6 9 1034.0 1034.1 0.0
02/08:30pm 8.9 4.9 3.1 67 2.5 SSE 13 17 7 9 1033.8 - 0.0
02/08:00pm 8.9 5.0 3.4 68 2.4 SSE 13 17 7 9 1033.6 - 0.0
02/07:30pm 8.8 5.0 3.8 71 2.2 SSE 13 19 7 10 1033.4 - 0.0
02/07:00pm 8.2 4.8 4.1 75 1.8 S 11 13 6 7 1033.1 - 0.0
02/06:30pm 8.6 4.9 4.3 74 1.9 SSE 13 15 7 8 1032.6 - 0.0
02/06:00pm 9.5 6.5 3.9 68 2.5 SSE 9 13 5 7 1032.2 1032.2 0.0
02/05:30pm 10.2 6.6 3.1 61 3.1 SSE 11 19 6 10 1031.8 - 0.0
02/05:00pm 11.0 7.3 2.5 56 3.7 SSE 11 17 6 9 1031.6 - 0.0
02/04:30pm 11.5 7.0 2.3 53 4.0 ESE 15 19 8 10 1031.5 - 0.0
02/04:00pm 11.6 7.4 1.9 51 4.2 SSE 13 20 7 11 1031.5 - 0.0
02/03:30pm 11.7 7.9 2.0 51 4.2 SE 11 19 6 10 1031.7 - 0.0
02/03:00pm 12.0 8.0 2.7 53 4.1 SE 13 22 7 12 1031.6 1031.7 0.0
02/02:30pm 11.6 6.7 2.2 52 4.1 SE 17 22 9 12 1031.5 - 0.0
02/02:00pm 11.2 7.5 2.2 54 3.9 SE 11 24 6 13 1031.4 - 0.0
02/01:30pm 11.0 7.8 2.8 57 3.6 ESE 9 17 5 9 1031.6 - 0.0
02/01:00pm 10.3 5.8 2.1 57 3.5 ESE 15 22 8 12 1031.7 - 0.0
02/12:30pm 9.9 5.9 3.0 62 3.0 SSE 13 20 7 11 1032.2 - 0.0
02/12:00pm 9.7 4.8 2.2 59 3.2 ESE 17 22 9 12 1032.7 1032.7 0.0
02/11:30am 9.7 6.0 2.2 59 3.2 ESE 11 20 6 11 1032.9 - 0.0
02/11:00am 9.5 5.4 2.5 61 3.0 ESE 13 24 7 13 1033.0 - 0.0
02/10:30am 8.6 4.1 2.2 64 2.7 ESE 15 24 8 13 1033.2 - 0.0
02/10:00am 8.5 3.3 2.4 65 2.6 ESE 19 28 10 15 1033.1 - 0.0
02/09:30am 8.2 2.9 2.0 65 2.6 ESE 19 28 10 15 1033.0 - 0.0
02/09:00am 8.2 3.3 2.3 66 2.5 ESE 17 22 9 12 1032.8 1032.8 0.8
02/08:30am 8.1 3.2 1.9 65 2.6 SSE 17 24 9 13 1032.3 - 0.8
02/08:00am 8.0 3.1 1.7 64 2.6 SE 17 26 9 14 1032.0 - 0.8
02/07:30am 8.0 3.2 2.6 69 2.3 SE 17 26 9 14 1031.3 - 0.8
02/07:00am 8.0 3.6 2.9 70 2.2 SSE 15 20 8 11 1030.9 - 0.8
02/06:30am 8.0 3.8 3.6 74 1.9 SSE 15 20 8 11 1030.5 - 0.8
02/06:00am 8.2 4.1 4.4 77 1.7 SE 15 22 8 12 1030.0 1030.0 0.8
02/05:30am 8.3 4.3 5.0 80 1.5 SE 15 22 8 12 1029.7 - 0.8
02/05:00am 8.5 4.6 5.2 80 1.5 SE 15 22 8 12 1029.3 - 0.8
02/04:30am 8.7 5.3 6.1 84 1.2 SE 13 19 7 10 1028.8 - 0.8
02/04:00am 8.7 5.4 6.6 87 1.0 SE 13 17 7 9 1028.5 - 0.8
02/03:30am 8.6 6.2 7.1 90 0.7 SE 9 13 5 7 1028.5 - 0.8
02/03:00am 8.4 6.7 7.4 93 0.5 SE 6 9 3 5 1028.5 1028.6 0.8
02/02:30am 8.1 6.0 6.8 91 0.6 SSE 7 9 4 5 1028.3 - 0.8
02/02:00am 8.3 5.4 6.6 89 0.8 SSE 11 15 6 8 1028.3 - 0.8
02/01:30am 8.4 5.5 6.7 89 0.8 SSE 11 13 6 7 1028.4 - 0.8
02/01:00am 8.4 6.0 6.9 90 0.7 SSE 9 11 5 6 1028.1 - 0.8
02/12:30am 9.0 5.8 6.9 87 1.0 SSE 13 17 7 9 1028.0 - 0.8
02/12:00am 9.3 5.8 7.0 85 1.1 SSE 15 20 8 11 1027.9 1027.9 0.8
 
Date/Time
WST
Temp
°C
App
Temp
°C
Dew
Point
Rel
Hum
%
Delta-T
°C
Wind Press
QNH
hPa
Press
MSL
hPa
Rain
since 9 am
mm
Dir
 
Spd
km/h
Gust
km/h
Spd
kts
Gust
kts
01/11:30pm 9.4 6.6 6.9 84 1.2 SSE 11 17 6 9 1027.7 - 0.8
01/11:00pm 9.5 6.3 6.8 83 1.3 SSE 13 17 7 9 1027.7 - 0.8
01/10:30pm 9.7 6.4 6.5 80 1.5 SSE 13 22 7 12 1027.6 - 0.8
01/10:00pm 10.0 6.3 6.4 78 1.7 SSE 15 20 8 11 1027.4 - 0.8
01/09:30pm 10.3 5.8 6.3 76 1.9 SE 19 28 10 15 1027.1 - 0.8
01/09:00pm 10.6 5.9 5.9 73 2.2 SE 20 28 11 15 1026.6 1026.6 0.8
01/08:30pm 10.6 6.0 6.6 76 1.9 SSE 20 30 11 16 1026.3 - 0.8
01/08:00pm 10.7 6.1 6.7 76 1.9 SSE 20 32 11 17 1025.7 - 0.8
01/07:30pm 10.7 6.8 7.0 78 1.8 SSE 17 30 9 16 1025.1 - 0.8
01/07:00pm 11.2 7.8 5.9 70 2.5 SSE 13 19 7 10 1024.6 - 0.8
01/06:30pm 11.5 7.8 6.5 71 2.4 SSE 15 20 8 11 1024.1 - 0.8
01/06:00pm 11.6 8.5 7.3 75 2.1 SSE 13 17 7 9 1023.6 1023.5 0.8
01/05:30pm 11.4 8.6 8.6 83 1.4 SE 13 19 7 10 1023.2 - 0.8
01/05:00pm 11.2 8.2 9.2 87 1.0 ESE 15 19 8 10 1023.0 - 0.8
01/04:30pm 11.2 5.9 8.6 84 1.3 ESE 26 32 14 17 1022.6 - 0.8
01/04:13pm 11.2 5.8 8.0 81 1.6 SE 26 37 14 20 1022.3 - 0.8
01/04:00pm 10.9 7.0 9.3 90 0.8 SE 20 28 11 15 1022.2 - 0.8
01/03:30pm 10.9 6.5 9.1 89 0.9 SSE 22 32 12 17 1021.6 - 0.8
01/03:19pm 11.1 7.2 9.3 89 0.9 SSE 20 33 11 18 1021.4 - 0.8
01/03:12pm 11.2 7.5 9.4 89 0.9 SSE 19 28 10 15 1021.4 - 0.8
01/03:00pm 11.3 7.0 9.3 87 1.0 SSE 22 30 12 16 1021.2 1021.1 0.8
01/02:47pm 11.5 7.1 9.1 85 1.2 SSE 22 37 12 20 1021.0 - 0.8
01/02:30pm 11.7 6.8 10.0 89 0.9 SE 26 37 14 20 1020.8 - 0.8
01/02:29pm 11.8 6.9 10.1 89 0.9 SE 26 37 14 20 1020.8 - 0.8
01/02:27pm 11.7 6.4 10.0 89 0.9 SE 28 37 15 20 1020.7 - 0.8
01/02:00pm 11.1 5.1 10.1 94 0.5 SE 32 43 17 23 1020.1 - 0.8
01/01:30pm 11.4 7.1 10.8 96 0.3 SE 24 39 13 21 1020.0 - 0.6
01/01:06pm 11.7 7.1 10.9 95 0.4 SE 26 39 14 21 1020.0 - 0.6
01/01:01pm 11.8 6.4 10.9 94 0.5 SE 30 41 16 22 1019.9 - 0.6
01/01:00pm 11.7 6.3 10.8 94 0.5 SE 30 41 16 22 1019.9 - 0.6
01/12:30pm 11.4 5.9 10.6 95 0.4 SE 30 41 16 22 1019.9 - 0.6
01/12:24pm 11.7 5.6 10.6 93 0.6 SE 33 43 18 23 1019.9 - 0.6
01/12:00pm 11.5 5.4 10.5 94 0.5 SE 33 46 18 25 1019.8 1019.8 0.6
01/11:30am 11.4 6.7 10.6 95 0.4 SE 26 41 14 22 1019.8 - 0.2
01/11:00am 11.9 6.5 10.8 93 0.6 SE 30 39 16 21 1019.8 - 0.2
01/10:44am 11.6 6.6 10.8 95 0.4 SE 28 48 15 26 1019.6 - 0.2
01/10:30am 11.6 7.4 11.0 96 0.3 SE 24 35 13 19 1019.4 - 0.2
01/10:00am 11.5 7.6 10.9 96 0.3 SSE 22 32 12 17 1019.1 - 0.2
01/09:50am 11.5 6.9 10.9 96 0.3 SE 26 41 14 22 1019.0 - 0.2
01/09:30am 12.5 9.9 11.9 96 0.3 SE 17 20 9 11 1018.9 - 0.2
01/09:04am 12.2 10.3 11.8 97 0.2 ESE 13 17 7 9 1018.4 - 0.0
01/09:00am 12.1 10.5 11.7 97 0.2 ESE 11 13 6 7 1018.4 1018.3 35.2
01/08:30am 11.8 10.9 11.4 97 0.2 ESE 7 11 4 6 1018.1 - 33.4
01/08:20am 11.7 10.5 11.5 99 0.1 SE 9 15 5 8 1017.9 - 32.4
01/08:00am 11.7 8.9 11.3 97 0.2 SE 17 19 9 10 1017.2 - 31.2
01/07:30am 11.7 9.6 11.3 97 0.2 SE 13 17 7 9 1016.9 - 28.6
01/07:00am 11.8 9.8 11.4 97 0.2 ESE 13 17 7 9 1016.3 - 27.0
01/06:54am 11.9 10.2 11.3 96 0.3 E 11 15 6 8 1016.2 - 26.4
01/06:45am 11.9 10.2 11.1 95 0.4 E 11 15 6 8 1016.1 - 26.2
01/06:30am 11.9 10.2 11.1 95 0.4 ENE 11 15 6 8 1015.9 - 26.0
01/06:00am 11.5 10.5 11.1 97 0.2 E 7 9 4 5 1015.6 1015.5 25.6
01/05:51am 11.5 10.5 11.1 97 0.2 ESE 7 11 4 6 1015.5 - 25.6
01/05:30am 11.4 10.4 11.0 97 0.2 SSE 7 9 4 5 1015.4 - 25.6
01/05:17am 11.4 10.3 10.8 96 0.3 SSW 7 9 4 5 1015.5 - 25.6
01/05:00am 11.4 10.4 11.0 97 0.2 SW 7 9 4 5 1015.3 - 25.6
01/04:30am 11.3 9.9 10.9 97 0.2 SSW 9 13 5 7 1015.1 - 25.6
01/04:00am 11.1 9.6 10.7 97 0.2 SSW 9 11 5 6 1015.0 - 25.6
01/03:30am 11.1 9.3 10.7 97 0.2 SSW 11 15 6 8 1014.9 - 25.6
01/03:00am 10.8 9.3 10.4 97 0.2 SSW 9 11 5 6 1014.8 1014.7 25.6
01/02:53am 10.2 9.5 10.0 99 0.1 N 4 9 2 5 1014.7 - 25.6
01/02:30am 11.0 10.5 10.6 97 0.2 NNE 4 7 2 4 1014.5 - 25.6
01/02:00am 11.3 9.8 10.5 95 0.4 NNE 9 11 5 6 1014.4 - 25.6
01/01:30am 11.7 9.5 10.9 95 0.4 NNE 13 19 7 10 1014.1 - 25.6
01/01:00am 12.0 10.5 10.7 92 0.7 NE 9 15 5 8 1014.0 - 25.6
01/12:30am 12.1 9.6 11.2 94 0.5 NE 15 20 8 11 1013.8 - 25.6
01/12:00am 12.3 9.1 11.4 94 0.5 ENE 19 28 10 15 1013.6 1013.7 25.6
 
Date/Time
WST
Temp
°C
App
Temp
°C
Dew
Point
Rel
Hum
%
Delta-T
°C
Wind Press
QNH
hPa
Press
MSL
hPa
Rain
since 9 am
mm
Dir
 
Spd
km/h
Gust
km/h
Spd
kts
Gust
kts
31/11:58pm 12.3 9.5 11.4 94 0.5 ENE 17 28 9 15 1013.7 - 25.6
31/11:30pm 12.5 11.6 11.2 92 0.7 ENE 7 15 4 8 1015.8 - 25.0
31/11:00pm 12.4 10.0 11.5 94 0.5 NNE 15 22 8 12 1015.4 - 25.0
31/10:30pm 12.5 9.8 11.6 94 0.5 ENE 17 24 9 13 1015.0 - 25.0
31/10:00pm 12.4 10.6 12.0 97 0.2 ENE 13 17 7 9 1015.8 - 25.0
31/09:30pm 12.5 11.8 12.1 97 0.2 S 7 13 4 7 1017.3 - 24.6
31/09:00pm 12.6 12.0 12.2 97 0.2 SSE 7 13 4 7 1016.9 1017.0 23.6
31/08:30pm 12.6 10.4 12.2 97 0.2 ESE 15 19 8 10 1016.5 - 22.6
31/08:00pm 12.5 10.7 12.1 97 0.2 SSE 13 17 7 9 1016.7 - 22.0
31/07:40pm 12.6 10.0 12.0 96 0.3 S 17 22 9 12 1016.9 - 20.6
31/07:30pm 12.6 9.4 12.0 96 0.3 SSW 20 28 11 15 1016.9 - 20.4
31/07:10pm 12.6 9.5 12.2 97 0.2 SSW 20 32 11 17 1015.4 - 18.4
31/07:00pm 12.8 8.6 12.3 97 0.3 S 26 35 14 19 1014.8 - 16.2
31/06:56pm 13.0 10.6 12.5 97 0.3 SSW 17 28 9 15 1015.1 - 15.4
31/06:52pm 13.1 11.1 12.6 97 0.3 SW 15 20 8 11 1015.8 - 14.2
31/06:30pm 13.1 10.1 12.6 97 0.3 S 20 26 11 14 1014.4 - 13.0
31/06:21pm 13.1 10.3 12.6 97 0.3 SE 19 26 10 14 1014.5 - 12.8
31/06:01pm 13.2 10.1 12.3 94 0.5 SE 20 28 11 15 1014.5 - 12.2
31/06:00pm 13.2 10.1 12.3 94 0.5 SE 20 28 11 15 1014.5 1014.6 11.8
31/05:56pm 13.2 9.7 12.3 94 0.5 ESE 22 35 12 19 1015.2 - 11.0
31/05:52pm 13.2 8.7 12.5 95 0.4 ESE 28 39 15 21 1014.7 - 10.6
31/05:30pm 13.4 10.6 12.5 94 0.5 SE 19 24 10 13 1014.9 - 10.4
31/05:22pm 13.5 12.2 12.6 94 0.5 NNW 11 20 6 11 1015.6 - 9.2
31/05:18pm 13.8 12.4 12.3 91 0.8 N 11 20 6 11 1016.2 - 3.6
31/05:12pm 13.8 9.6 12.4 91 0.8 SE 26 44 14 24 1014.8 - 0.0
31/05:00pm 13.9 9.7 12.3 90 0.9 SE 26 35 14 19 1012.7 - 0.0
31/04:30pm 14.1 10.7 12.5 90 0.9 SE 22 30 12 16 1013.5 - 0.0
31/04:00pm 14.4 11.0 12.4 88 1.1 SSE 22 35 12 19 1013.6 - 0.0
31/03:30pm 14.7 11.7 12.4 86 1.3 SSE 20 30 11 16 1014.3 - 0.0
31/03:00pm 16.1 11.3 11.6 74 2.5 SSE 28 37 15 20 1014.3 1014.4 0.0
31/02:30pm 17.2 14.2 12.6 74 2.6 SSE 20 28 11 15 1014.0 - 0.0
31/02:00pm 17.7 14.6 13.5 76 2.4 SE 22 30 12 16 1013.5 - 0.0
31/01:30pm 17.9 15.1 13.2 74 2.7 SE 20 28 11 15 1013.5 - 0.0
31/01:00pm 18.3 16.5 13.4 73 2.8 SE 15 22 8 12 1014.1 - 0.0
31/12:30pm 18.1 16.6 13.2 73 2.8 ESE 13 19 7 10 1014.5 - 0.0
31/12:00pm 17.9 16.1 13.2 74 2.7 ESE 15 19 8 10 1014.9 1015.0 0.0
31/11:30am 17.5 17.0 13.7 78 2.2 ESE 9 15 5 8 1015.4 - 0.0
31/11:00am 17.0 16.3 13.1 78 2.2 ENE 9 13 5 7 1015.9 - 0.0
31/10:30am 16.5 15.7 13.0 80 2.0 E 9 13 5 7 1016.4 - 0.0
31/10:00am 16.4 15.3 13.0 80 1.9 E 11 15 6 8 1016.8 - 0.0
31/09:30am 15.1 14.0 13.0 87 1.2 E 11 17 6 9 1016.7 - 0.0
31/09:00am 14.2 12.7 13.1 93 0.6 ESE 13 17 7 9 1017.0 1017.1 5.2
31/08:30am 13.9 12.4 13.0 94 0.5 E 13 17 7 9 1017.1 - 5.2
31/08:00am 13.6 12.5 13.1 97 0.3 ESE 11 15 6 8 1017.4 - 5.2
31/07:30am 13.4 12.6 12.9 97 0.3 ESE 9 11 5 6 1017.8 - 5.2
31/07:00am 13.3 12.1 12.8 97 0.3 ESE 11 13 6 7 1017.7 - 5.2
31/06:30am 13.3 12.5 12.8 97 0.3 S 9 11 5 6 1018.3 - 5.2
31/06:27am 13.3 12.5 12.8 97 0.3 SSW 9 11 5 6 1018.4 - 5.2
31/06:00am 13.3 10.4 12.8 97 0.3 SW 20 28 11 15 1019.2 1019.3 5.2
31/05:51am 13.3 10.4 12.8 97 0.3 SW 20 32 11 17 1018.5 - 5.2
31/05:30am 13.3 12.5 12.8 97 0.3 N 9 13 5 7 1016.9 - 5.2
31/05:00am 13.3 12.5 12.9 97 0.2 NNE 9 13 5 7 1017.0 - 5.2
31/04:30am 13.4 13.0 12.9 97 0.3 NNE 7 9 4 5 1017.6 - 4.6
31/04:00am 13.5 14.4 12.8 95 0.4 CALM 0 7 0 4 1018.2 - 4.6
31/03:43am 13.5 13.7 13.0 97 0.3 SSE 4 11 2 6 1018.7 - 4.6
31/03:30am 13.6 12.8 12.9 95 0.4 WSW 9 17 5 9 1019.0 - 4.4
31/03:28am 13.6 12.4 12.9 95 0.4 WSW 11 17 6 9 1019.2 - 4.4
31/03:00am 13.7 13.5 13.0 96 0.4 SE 6 11 3 6 1019.3 1019.4 3.6
31/02:30am 13.8 13.0 12.9 94 0.5 W 9 13 5 7 1020.1 - 3.2
31/02:00am 14.0 13.2 12.9 93 0.6 WSW 9 13 5 7 1020.3 - 2.8
31/01:30am 14.1 13.3 13.0 93 0.6 SW 9 13 5 7 1020.5 - 2.4
31/01:00am 14.5 12.2 12.9 90 0.9 WSW 17 22 9 12 1020.9 - 1.8
31/12:30am 14.9 13.8 14.2 96 0.4 SW 13 19 7 10 1020.6 - 1.6
31/12:00am 14.9 16.3 14.4 97 0.3 CALM 0 6 0 3 1020.0 1020.2 1.4
 
Date/Time
WST
Temp
°C
App
Temp
°C
Dew
Point
Rel
Hum
%
Delta-T
°C
Wind Press
QNH
hPa
Press
MSL
hPa
Rain
since 9 am
mm
Dir
 
Spd
km/h
Gust
km/h
Spd
kts
Gust
kts
30/11:30pm 14.8 14.9 14.5 98 0.2 S 7 9 4 5 1020.2 - 1.4
30/11:05pm 15.0 16.1 14.5 97 0.3 E 2 7 1 4 1020.3 - 1.4
30/11:00pm 15.1 16.6 14.6 97 0.3 CALM 0 0 0 0 1020.3 - 1.4
30/10:45pm 14.9 16.4 14.6 98 0.2 CALM 0 0 0 0 1020.3 - 1.4
30/10:30pm 15.2 16.6 14.5 96 0.4 CALM 0 0 0 0 1020.7 - 1.4

Other Formats:

Comma delimited format used in spreadsheet applications
http://www.bom.gov.au/fwo/IDW60801/IDW60801.94637.axf

JavaScript Object Notation format (JSON) in row-major order
http://www.bom.gov.au/fwo/IDW60801/IDW60801.94637.json